Jackson County Reynolds Field Jackson US
ICAO: KJXN
IATA: JXN
Category: Medium
Scheduled Services: No

Elevation: 1001 ft
TransAlt. 18000 ft.

Airport Communications:
LANSING APP/DEP:127.3
ATIS:125.725
CTAF:120.7
GND/CLNC DEL:121.9
LANSING RDO:122.2
TWR:120.7
UNICOM:122.95

KJXN Zoom In..

If Map Doesn't Load, Click Here

Runways:

(A) RW 06 length 5349 ft width 150 ft
---- / hdg 56

(B) RW 14 length 4000 ft width 100 ft
---- / hdg 138

(C) RW 24 length 5349 ft width 150 ft
ILS 109.10 / hdg 236

(D) RW 32 length 4000 ft width 100 ft
---- / hdg 318

Location; KJXN
Day. 26 / Time. 10.30 Zulu
* Altimeter: 29.90
* Temperature: 16° c. 60.8°f.
* Wind from: 270° Speed 09 kn.
Dewpoint: 13° c.
Visibility: 10 Statute Miles.
Clouds: Few 1900 ft.
Clouds: Broken 2900 ft.
Clouds: Broken 3400 ft.

KJXN 261030Z AUTO 27009KT 10SM FEW019 BKN029 BKN034 16/13 A2990 RMK AO2 T01560133


Wind From 270°
Speed 09 kn.

 
 
jpsmedia.com for Web Design worldairports.se 2018   terms of use